Time;durP1;ratioP1;P1;durP2;ratioP2;P2;SDS_P1;SDS_P2;PMS_P1;PMS_P2;Temp;Humidity;BMP_temperature;BMP_pressure;BME280_temperature;BME280_humidity;BME280_pressure;Samples;Min_cycle;Max_cycle;Signal;HPM_P1;HPM_P2
2022/08/31 00:05:21;;;;;;;3.65;2.80;;;;;;;;;;5092652;28;20039;-70
2022/08/31 00:07:47;;;;;;;2.57;2.03;;;;;;;;;;5090167;28;20143;-70
2022/08/31 00:10:17;;;;;;;4.47;2.57;;;;;;;;;;5106864;28;20027;-70
2022/08/31 00:12:45;;;;;;;4.23;1.73;;;;;;;;;;5107797;28;20042;-70
2022/08/31 00:15:13;;;;;;;2.23;1.53;;;;;;;;;;5107842;28;20081;-70
2022/08/31 00:17:40;;;;;;;7.73;2.60;;;;;;;;;;5109955;28;20412;-70
2022/08/31 00:20:08;;;;;;;3.33;2.23;;;;;;;;;;5095885;28;20474;-70
2022/08/31 00:22:35;;;;;;;2.80;2.03;;;;;;;;;;5106860;28;20096;-70
2022/08/31 00:25:02;;;;;;;2.67;2.10;;;;;;;;;;5112712;28;20031;-70
2022/08/31 00:27:28;;;;;;;3.77;2.10;;;;;;;;;;5112733;28;20027;-70
2022/08/31 00:29:55;;;;;;;4.57;3.03;;;;;;;;;;5110665;28;20024;-70
2022/08/31 00:32:22;;;;;;;3.80;2.87;;;;;;;;;;5095457;28;20039;-70
2022/08/31 00:34:48;;;;;;;3.50;2.90;;;;;;;;;;5087192;28;20423;-70
2022/08/31 00:37:15;;;;;;;4.60;2.20;;;;;;;;;;5086702;28;20467;-70
2022/08/31 00:39:42;;;;;;;2.50;2.10;;;;;;;;;;5088878;28;20042;-70
2022/08/31 00:42:09;;;;;;;3.03;2.27;;;;;;;;;;5101990;28;20379;-70
2022/08/31 00:44:35;;;;;;;2.20;1.57;;;;;;;;;;5112669;28;20528;-70
2022/08/31 00:47:02;;;;;;;4.70;3.17;;;;;;;;;;5112497;28;20509;-70
2022/08/31 00:49:30;;;;;;;4.40;2.90;;;;;;;;;;5112623;28;20053;-70
2022/08/31 00:52:04;;;;;;;3.80;2.57;;;;;;;;;;5102509;28;20036;-72
2022/08/31 00:54:32;;;;;;;6.57;2.83;;;;;;;;;;5087053;28;20049;-73
2022/08/31 00:56:59;;;;;;;7.80;3.97;;;;;;;;;;5087131;28;20098;-72
2022/08/31 00:59:26;;;;;;;3.13;2.30;;;;;;;;;;5087047;28;20070;-72
2022/08/31 01:01:53;;;;;;;5.67;3.30;;;;;;;;;;5094852;28;20069;-72
2022/08/31 01:04:20;;;;;;;3.00;2.57;;;;;;;;;;5112593;28;20398;-72
2022/08/31 01:06:47;;;;;;;3.20;2.53;;;;;;;;;;5112121;28;20023;-72
2022/08/31 01:09:14;;;;;;;3.27;2.47;;;;;;;;;;5112097;28;20019;-72
2022/08/31 01:11:41;;;;;;;5.63;2.87;;;;;;;;;;5106780;28;20043;-73
2022/08/31 01:14:08;;;;;;;3.93;2.50;;;;;;;;;;5091011;28;20047;-72
2022/08/31 01:16:37;;;;;;;3.53;2.37;;;;;;;;;;5086771;28;20604;-72
2022/08/31 01:19:06;;;;;;;2.97;1.87;;;;;;;;;;5086553;28;20024;-73
2022/08/31 01:21:39;;;;;;;3.27;2.13;;;;;;;;;;5090397;28;20435;-72
2022/08/31 01:24:06;;;;;;;6.03;3.30;;;;;;;;;;5107517;28;20027;-72
2022/08/31 01:26:33;;;;;;;3.17;2.47;;;;;;;;;;5112365;28;20034;-72
2022/08/31 01:29:01;;;;;;;2.50;2.07;;;;;;;;;;5112448;28;20451;-72
2022/08/31 01:31:31;;;;;;;4.47;2.53;;;;;;;;;;5109048;28;20079;-72
2022/08/31 01:33:58;;;;;;;10.70;2.00;;;;;;;;;;5092480;28;20069;-72
2022/08/31 01:36:25;;;;;;;5.73;2.90;;;;;;;;;;5094431;28;20024;-72
2022/08/31 01:38:52;;;;;;;7.50;3.60;;;;;;;;;;5090098;28;20065;-72
2022/08/31 01:41:18;;;;;;;10.17;3.17;;;;;;;;;;5091355;28;20020;-72
2022/08/31 01:43:45;;;;;;;2.17;1.70;;;;;;;;;;5110490;28;20024;-72
2022/08/31 01:46:12;;;;;;;2.43;1.83;;;;;;;;;;5110726;28;20023;-72
2022/08/31 01:48:41;;;;;;;5.30;2.10;;;;;;;;;;5115631;28;20439;-72
2022/08/31 01:51:08;;;;;;;2.13;1.90;;;;;;;;;;5115624;28;20114;-72
2022/08/31 01:53:34;;;;;;;5.00;2.73;;;;;;;;;;5095521;28;20427;-72
2022/08/31 01:56:01;;;;;;;3.33;2.57;;;;;;;;;;5094756;28;20020;-72
2022/08/31 01:58:28;;;;;;;4.70;2.77;;;;;;;;;;5095036;28;20440;-72
2022/08/31 02:00:55;;;;;;;5.07;3.30;;;;;;;;;;5089910;28;20081;-72
2022/08/31 02:03:21;;;;;;;2.77;2.40;;;;;;;;;;5107670;28;20435;-72
2022/08/31 02:05:48;;;;;;;8.67;3.20;;;;;;;;;;5110140;28;20024;-72
2022/08/31 02:08:15;;;;;;;4.87;3.20;;;;;;;;;;5110146;28;20011;-72
2022/08/31 02:10:42;;;;;;;3.23;2.20;;;;;;;;;;5114793;28;20028;-72
2022/08/31 02:13:08;;;;;;;2.37;1.87;;;;;;;;;;5098663;28;20043;-72
2022/08/31 02:15:35;;;;;;;4.30;3.30;;;;;;;;;;5094875;28;20024;-72
2022/08/31 02:18:02;;;;;;;3.33;2.67;;;;;;;;;;5094768;28;20020;-72
2022/08/31 02:20:28;;;;;;;3.70;3.20;;;;;;;;;;5092441;28;20363;-66
2022/08/31 02:22:55;;;;;;;5.17;2.83;;;;;;;;;;5103325;28;20474;-71
2022/08/31 02:25:22;;;;;;;3.37;2.70;;;;;;;;;;5093538;28;20024;-71
2022/08/31 02:27:48;;;;;;;4.20;2.57;;;;;;;;;;5089415;28;20474;-70
2022/08/31 02:30:17;;;;;;;2.97;2.33;;;;;;;;;;5089605;28;20020;-70
2022/08/31 02:32:44;;;;;;;3.53;2.63;;;;;;;;;;5093815;28;20119;-70
2022/08/31 02:35:11;;;;;;;4.87;3.67;;;;;;;;;;5094602;28;20407;-70
2022/08/31 02:37:38;;;;;;;3.77;2.87;;;;;;;;;;5101668;28;20024;-68
2022/08/31 02:40:07;;;;;;;2.77;2.27;;;;;;;;;;5094455;28;20102;-67
2022/08/31 02:42:34;;;;;;;5.03;2.77;;;;;;;;;;5094510;28;20059;-69
2022/08/31 02:45:00;;;;;;;4.03;2.90;;;;;;;;;;5089912;28;20034;-68
2022/08/31 02:47:29;;;;;;;4.20;3.40;;;;;;;;;;5105804;28;20034;-69
2022/08/31 02:50:03;;;;;;;5.20;3.20;;;;;;;;;;5090610;28;20016;-68
2022/08/31 02:52:30;;;;;;;4.00;2.97;;;;;;;;;;5089082;28;20036;-71
2022/08/31 02:54:57;;;;;;;4.60;3.07;;;;;;;;;;5092912;28;20469;-71
2022/08/31 02:57:24;;;;;;;4.57;2.70;;;;;;;;;;5094072;28;20040;-71
2022/08/31 02:59:50;;;;;;;3.73;2.87;;;;;;;;;;5094034;28;20493;-72
2022/08/31 03:02:17;;;;;;;5.27;2.50;;;;;;;;;;5093612;28;20462;-71
2022/08/31 03:04:44;;;;;;;2.30;1.70;;;;;;;;;;5111687;28;20058;-73
2022/08/31 03:07:11;;;;;;;3.50;2.40;;;;;;;;;;5110148;28;20048;-73
2022/08/31 03:09:37;;;;;;;3.70;2.57;;;;;;;;;;5109372;28;20269;-72
2022/08/31 03:12:04;;;;;;;3.70;3.07;;;;;;;;;;5109234;28;20031;-71
2022/08/31 03:14:31;;;;;;;5.33;3.17;;;;;;;;;;5093730;28;20032;-71
2022/08/31 03:16:57;;;;;;;3.10;2.33;;;;;;;;;;5092779;28;20478;-76
2022/08/31 03:19:24;;;;;;;4.87;3.47;;;;;;;;;;5073120;28;20028;-72
2022/08/31 03:21:51;;;;;;;3.60;2.90;;;;;;;;;;5073352;28;20017;-71
2022/08/31 03:24:17;;;;;;;3.60;2.60;;;;;;;;;;5073277;28;20016;-71
2022/08/31 03:26:45;;;;;;;2.37;2.17;;;;;;;;;;5073512;28;20100;-71
2022/08/31 03:29:12;;;;;;;4.50;3.17;;;;;;;;;;5089007;28;20043;-69
2022/08/31 03:31:39;;;;;;;3.70;3.07;;;;;;;;;;5088379;28;20475;-70
2022/08/31 03:34:06;;;;;;;3.80;1.80;;;;;;;;;;5088467;28;20024;-72
2022/08/31 03:36:33;;;;;;;4.10;2.37;;;;;;;;;;5088062;28;20020;-71
2022/08/31 03:38:59;;;;;;;3.13;2.33;;;;;;;;;;5105879;28;20051;-71
2022/08/31 03:41:27;;;;;;;3.37;2.77;;;;;;;;;;5113772;28;20084;-72
2022/08/31 03:43:54;;;;;;;3.20;2.70;;;;;;;;;;5113851;28;20544;-70
2022/08/31 03:46:20;;;;;;;4.80;3.03;;;;;;;;;;5113668;28;20016;-70
2022/08/31 03:48:47;;;;;;;3.43;2.80;;;;;;;;;;5113567;28;20063;-72
2022/08/31 03:51:14;;;;;;;2.93;2.47;;;;;;;;;;5096384;28;20487;-74
2022/08/31 03:53:41;;;;;;;3.10;2.27;;;;;;;;;;5087601;28;20149;-72
2022/08/31 03:56:10;;;;;;;3.47;3.07;;;;;;;;;;5088015;28;20123;-71
2022/08/31 03:58:37;;;;;;;3.10;2.37;;;;;;;;;;5090102;28;20020;-71
2022/08/31 04:01:04;;;;;;;4.13;2.77;;;;;;;;;;5108417;28;20359;-71
2022/08/31 04:03:31;;;;;;;3.23;2.63;;;;;;;;;;5113343;28;20066;-69
2022/08/31 04:05:58;;;;;;;4.93;3.03;;;;;;;;;;5113321;28;20051;-72
2022/08/31 04:08:25;;;;;;;4.77;2.03;;;;;;;;;;5113219;28;20486;-73
2022/08/31 04:10:52;;;;;;;3.77;2.43;;;;;;;;;;5094120;28;20033;-74
2022/08/31 04:13:19;;;;;;;2.60;2.17;;;;;;;;;;5070073;28;20032;-74
2022/08/31 04:15:46;;;;;;;3.57;2.57;;;;;;;;;;5067306;28;20055;-74
2022/08/31 04:18:12;;;;;;;3.43;2.63;;;;;;;;;;5067313;28;20028;-75
2022/08/31 04:20:39;;;;;;;2.27;1.83;;;;;;;;;;5067123;28;20515;-75
2022/08/31 04:23:06;;;;;;;4.17;3.17;;;;;;;;;;5083263;28;20364;-75
2022/08/31 04:25:37;;;;;;;2.80;2.03;;;;;;;;;;5092551;28;20450;-74
2022/08/31 04:28:03;;;;;;;3.10;1.67;;;;;;;;;;5092307;28;20031;-74
2022/08/31 04:30:30;;;;;;;2.77;1.87;;;;;;;;;;5092459;28;20032;-74
2022/08/31 04:33:00;;;;;;;3.33;2.70;;;;;;;;;;5103920;28;20505;-75
2022/08/31 04:35:27;;;;;;;5.87;2.40;;;;;;;;;;5110559;28;20080;-75
2022/08/31 04:37:54;;;;;;;1.90;1.63;;;;;;;;;;5107552;28;20185;-75
2022/08/31 04:40:21;;;;;;;3.20;2.43;;;;;;;;;;5096727;28;20024;-74
2022/08/31 04:42:48;;;;;;;3.23;2.67;;;;;;;;;;5105020;28;20036;-74
2022/08/31 04:45:15;;;;;;;3.70;2.03;;;;;;;;;;5108426;28;20470;-74
2022/08/31 04:47:42;;;;;;;4.70;2.67;;;;;;;;;;5110258;28;20016;-74
2022/08/31 04:50:10;;;;;;;3.87;3.10;;;;;;;;;;5098283;28;20161;-75
2022/08/31 04:52:37;;;;;;;2.40;2.07;;;;;;;;;;5096124;28;20028;-74
2022/08/31 04:55:04;;;;;;;8.73;2.17;;;;;;;;;;5092345;28;20052;-74
2022/08/31 04:57:33;;;;;;;3.57;2.63;;;;;;;;;;5090787;28;20034;-75
2022/08/31 05:00:00;;;;;;;5.00;2.40;;;;;;;;;;5087015;28;20024;-74
2022/08/31 05:02:26;;;;;;;4.47;3.17;;;;;;;;;;5099824;28;20074;-74
2022/08/31 05:04:53;;;;;;;1.63;1.53;;;;;;;;;;5107240;28;20028;-74
2022/08/31 05:07:20;;;;;;;3.90;2.97;;;;;;;;;;5107991;28;20051;-74
2022/08/31 05:09:46;;;;;;;4.53;2.80;;;;;;;;;;5114415;28;20023;-74
2022/08/31 05:12:13;;;;;;;3.53;2.83;;;;;;;;;;5116517;28;20032;-74
2022/08/31 05:14:40;;;;;;;2.50;2.10;;;;;;;;;;5099539;28;20030;-74
2022/08/31 05:17:08;;;;;;;2.63;2.17;;;;;;;;;;5096003;28;20099;-74
2022/08/31 05:19:35;;;;;;;3.53;2.50;;;;;;;;;;5094844;28;20078;-74
2022/08/31 05:22:05;;;;;;;1.67;1.17;;;;;;;;;;5090641;28;20027;-74
2022/08/31 05:24:35;;;;;;;7.00;3.63;;;;;;;;;;5090553;28;20035;-74
2022/08/31 05:27:03;;;;;;;3.10;2.60;;;;;;;;;;5108510;28;20036;-75
2022/08/31 05:29:31;;;;;;;2.73;2.37;;;;;;;;;;5111330;28;20027;-75
2022/08/31 05:31:58;;;;;;;3.73;2.40;;;;;;;;;;5115897;28;20043;-75
2022/08/31 05:34:26;;;;;;;3.93;2.63;;;;;;;;;;5116246;28;20059;-74
2022/08/31 05:36:57;;;;;;;3.37;2.57;;;;;;;;;;5115955;28;20050;-75
2022/08/31 05:39:29;;;;;;;3.73;2.33;;;;;;;;;;5075183;28;20390;-74
2022/08/31 05:41:58;;;;;;;3.47;2.50;;;;;;;;;;5074033;28;20028;-74
2022/08/31 05:44:27;;;;;;;2.83;2.23;;;;;;;;;;5069505;28;20025;-75
2022/08/31 05:46:54;;;;;;;4.97;2.27;;;;;;;;;;5070094;28;20044;-74
2022/08/31 05:49:21;;;;;;;5.33;2.93;;;;;;;;;;5078936;28;20024;-74
2022/08/31 05:51:51;;;;;;;3.73;1.97;;;;;;;;;;5110682;28;20047;-74
2022/08/31 05:54:18;;;;;;;2.33;1.53;;;;;;;;;;5115478;28;20061;-74
2022/08/31 05:56:45;;;;;;;9.27;2.93;;;;;;;;;;5115607;28;20531;-74
2022/08/31 05:59:13;;;;;;;3.33;2.43;;;;;;;;;;5115457;28;20016;-74
2022/08/31 06:01:41;;;;;;;2.70;2.23;;;;;;;;;;5110663;28;20586;-74
2022/08/31 06:04:09;;;;;;;5.20;2.63;;;;;;;;;;5094334;28;20078;-74
2022/08/31 06:06:37;;;;;;;3.60;2.43;;;;;;;;;;5089867;28;20024;-74
2022/08/31 06:09:06;;;;;;;4.70;2.73;;;;;;;;;;5091314;28;20020;-74
2022/08/31 06:11:33;;;;;;;5.30;3.07;;;;;;;;;;5091383;28;20039;-74
2022/08/31 06:14:01;;;;;;;4.13;3.20;;;;;;;;;;5089641;28;20471;-74
2022/08/31 06:16:29;;;;;;;6.03;2.57;;;;;;;;;;5094993;28;20028;-74
2022/08/31 06:18:57;;;;;;;5.57;2.77;;;;;;;;;;5094833;28;20027;-74
2022/08/31 06:21:32;;;;;;;3.57;1.80;;;;;;;;;;5114748;28;20024;-74
2022/08/31 06:23:59;;;;;;;3.20;2.30;;;;;;;;;;5115111;28;20099;-74
2022/08/31 06:26:27;;;;;;;2.37;2.03;;;;;;;;;;5114263;28;20111;-74
2022/08/31 06:28:55;;;;;;;4.97;2.97;;;;;;;;;;5109420;28;20024;-74
2022/08/31 06:31:25;;;;;;;2.07;1.87;;;;;;;;;;5105076;28;20036;-75
2022/08/31 06:33:52;;;;;;;7.97;2.80;;;;;;;;;;5089395;28;20058;-75
2022/08/31 06:36:20;;;;;;;4.37;2.20;;;;;;;;;;5089433;28;20027;-75
2022/08/31 06:38:47;;;;;;;2.67;2.30;;;;;;;;;;5094509;28;20107;-74
2022/08/31 06:41:25;;;;;;;5.07;2.57;;;;;;;;;;5094415;28;20019;-74
2022/08/31 06:44:28;;;;;;;3.27;2.27;;;;;;;;;;5095058;28;20079;-74
2022/08/31 06:46:55;;;;;;;4.97;3.37;;;;;;;;;;5074022;28;20025;-74
2022/08/31 06:49:22;;;;;;;3.77;2.27;;;;;;;;;;5071651;28;20429;-74
2022/08/31 06:51:49;;;;;;;16.63;2.67;;;;;;;;;;5068544;28;20036;-74
2022/08/31 06:54:17;;;;;;;2.97;2.10;;;;;;;;;;5069473;28;20035;-74
2022/08/31 06:56:45;;;;;;;8.20;3.03;;;;;;;;;;5109287;28;20477;-74
2022/08/31 06:59:12;;;;;;;4.23;2.90;;;;;;;;;;5110778;28;20031;-74
2022/08/31 07:01:38;;;;;;;4.53;2.83;;;;;;;;;;5114276;28;20024;-73
2022/08/31 07:04:06;;;;;;;2.90;2.17;;;;;;;;;;5114458;28;20035;-73
2022/08/31 07:06:40;;;;;;;2.43;1.93;;;;;;;;;;5094968;28;20056;-73
2022/08/31 07:09:07;;;;;;;4.73;2.53;;;;;;;;;;5094071;28;20722;-74
2022/08/31 07:11:38;;;;;;;2.97;2.60;;;;;;;;;;5091613;28;20085;-74
2022/08/31 07:14:06;;;;;;;3.30;2.13;;;;;;;;;;5088619;28;20020;-73
2022/08/31 07:16:32;;;;;;;2.90;2.27;;;;;;;;;;5106320;28;20039;-74
2022/08/31 07:19:00;;;;;;;5.57;2.37;;;;;;;;;;5108711;28;20019;-74
2022/08/31 07:21:26;;;;;;;2.87;2.37;;;;;;;;;;5110028;28;20374;-73
2022/08/31 07:23:54;;;;;;;3.60;2.93;;;;;;;;;;5113967;28;20089;-74
2022/08/31 07:26:28;;;;;;;4.63;3.47;;;;;;;;;;5097405;28;20028;-74
2022/08/31 07:28:56;;;;;;;4.65;3.25;;;;;;;;;;5093639;28;20402;-73
2022/08/31 07:31:23;;;;;;;4.50;3.10;;;;;;;;;;5092843;28;20067;-73
2022/08/31 07:33:54;;;;;;;5.50;3.30;;;;;;;;;;5090923;28;20024;-73
2022/08/31 07:36:21;;;;;;;3.40;2.93;;;;;;;;;;5103666;28;20680;-74
2022/08/31 07:44:19;;;;;;;3.88;2.80;;;;;;;;;;5110998;28;20078;-73
2022/08/31 07:46:46;;;;;;;3.50;2.63;;;;;;;;;;5094089;28;20035;-73
2022/08/31 07:49:14;;;;;;;5.13;3.77;;;;;;;;;;5093165;28;20111;-73
2022/08/31 07:51:50;;;;;;;7.10;3.30;;;;;;;;;;5093928;28;20030;-73
2022/08/31 07:54:22;;;;;;;3.60;2.63;;;;;;;;;;5092857;28;20024;-74
2022/08/31 07:56:49;;;;;;;2.93;2.63;;;;;;;;;;5089395;28;20112;-73
2022/08/31 07:59:16;;;;;;;2.77;2.30;;;;;;;;;;5087881;28;20024;-73
2022/08/31 08:01:43;;;;;;;4.73;3.50;;;;;;;;;;5092884;28;20026;-73
2022/08/31 08:04:14;;;;;;;3.67;3.27;;;;;;;;;;5108164;28;20091;-73
2022/08/31 08:06:40;;;;;;;16.63;3.40;;;;;;;;;;5110778;28;20107;-73
2022/08/31 08:09:08;;;;;;;6.83;3.77;;;;;;;;;;5113153;28;20091;-72
2022/08/31 08:11:36;;;;;;;4.90;3.53;;;;;;;;;;5108209;28;20062;-73
2022/08/31 08:14:03;;;;;;;4.20;3.47;;;;;;;;;;5093655;28;20028;-73
2022/08/31 08:16:30;;;;;;;5.73;4.33;;;;;;;;;;5092578;28;20036;-73
2022/08/31 08:18:57;;;;;;;6.87;3.83;;;;;;;;;;5089666;28;20122;-73
2022/08/31 08:21:24;;;;;;;4.40;2.50;;;;;;;;;;5089434;28;20072;-73
2022/08/31 08:23:50;;;;;;;7.13;3.97;;;;;;;;;;5107599;28;20027;-73
2022/08/31 08:26:17;;;;;;;4.47;2.53;;;;;;;;;;5107611;28;20028;-73
2022/08/31 08:28:43;;;;;;;2.93;2.33;;;;;;;;;;5109683;28;20024;-73
2022/08/31 08:31:14;;;;;;;3.40;2.80;;;;;;;;;;5112380;28;20046;-74
2022/08/31 08:33:41;;;;;;;3.17;2.60;;;;;;;;;;5072257;28;20032;-73
2022/08/31 08:36:08;;;;;;;3.00;2.43;;;;;;;;;;5072277;28;20029;-73
2022/08/31 08:38:36;;;;;;;3.27;2.33;;;;;;;;;;5072330;28;20028;-73
2022/08/31 08:41:05;;;;;;;4.27;3.70;;;;;;;;;;5075773;28;20379;-73
2022/08/31 08:43:33;;;;;;;6.07;3.07;;;;;;;;;;5109960;28;20022;-73
2022/08/31 08:46:02;;;;;;;2.50;2.00;;;;;;;;;;5114443;28;20115;-74
2022/08/31 08:48:31;;;;;;;2.87;2.17;;;;;;;;;;5114126;28;20127;-73
2022/08/31 08:50:59;;;;;;;3.63;2.40;;;;;;;;;;5114637;28;20487;-73
2022/08/31 08:53:28;;;;;;;7.37;3.60;;;;;;;;;;5099080;28;20020;-73
2022/08/31 08:55:54;;;;;;;4.10;3.03;;;;;;;;;;5100577;28;20081;-73
2022/08/31 08:58:22;;;;;;;3.20;2.40;;;;;;;;;;5119151;28;20534;-73
2022/08/31 09:00:50;;;;;;;2.37;2.10;;;;;;;;;;5119364;28;20038;-73
2022/08/31 09:03:32;;;;;;;4.07;2.90;;;;;;;;;;5116706;28;20053;-73
2022/08/31 09:06:16;;;;;;;3.73;2.60;;;;;;;;;;5112513;28;20374;-74
2022/08/31 09:08:43;;;;;;;2.40;2.00;;;;;;;;;;5093629;28;20031;-74
2022/08/31 09:11:18;;;;;;;8.47;2.40;;;;;;;;;;5093705;28;20036;-73
2022/08/31 09:13:56;;;;;;;1.60;1.37;;;;;;;;;;5096833;28;20020;-73
2022/08/31 09:16:24;;;;;;;2.77;1.87;;;;;;;;;;5103385;28;20030;-74
2022/08/31 09:19:11;;;;;;;2.27;1.60;;;;;;;;;;5118550;28;20031;-73
2022/08/31 09:21:51;;;;;;;2.50;1.63;;;;;;;;;;5119186;28;20062;-74
2022/08/31 09:24:20;;;;;;;2.87;2.17;;;;;;;;;;5119307;28;20027;-73
2022/08/31 09:26:46;;;;;;;2.60;2.20;;;;;;;;;;5105219;28;20024;-73
2022/08/31 09:29:27;;;;;;;1.67;1.50;;;;;;;;;;5093596;28;20027;-74
2022/08/31 09:32:21;;;;;;;3.03;2.13;;;;;;;;;;5093391;28;20032;-74
2022/08/31 09:35:00;;;;;;;2.60;1.90;;;;;;;;;;5056267;28;20038;-73
2022/08/31 09:37:27;;;;;;;1.67;1.57;;;;;;;;;;5111674;28;20019;-73
2022/08/31 09:39:54;;;;;;;3.23;2.20;;;;;;;;;;5119123;28;20051;-73
2022/08/31 09:42:30;;;;;;;3.27;1.87;;;;;;;;;;5119002;28;20027;-73
2022/08/31 09:45:08;;;;;;;1.17;1.00;;;;;;;;;;5105423;28;20352;-73
2022/08/31 09:47:59;;;;;;;0.63;0.60;;;;;;;;;;5096640;28;20038;-73
2022/08/31 09:50:37;;;;;;;1.30;1.07;;;;;;;;;;5093295;28;20496;-74
2022/08/31 09:56:12;;;;;;;1.60;1.40;;;;;;;;;;5069626;28;20039;-73
2022/08/31 09:58:39;;;;;;;;;;;;;;;;;;5074216;28;20017;-72
2022/08/31 10:01:11;;;;;;;1.17;1.07;;;;;;;;;;5074641;28;19911;-73
2022/08/31 10:03:42;;;;;;;1.53;1.23;;;;;;;;;;5077244;28;20501;-73
2022/08/31 10:06:36;;;;;;;2.50;1.90;;;;;;;;;;5115516;28;20050;-73
2022/08/31 10:09:05;;;;;;;4.77;2.60;;;;;;;;;;5115025;28;20030;-73
2022/08/31 10:11:34;;;;;;;1.40;1.30;;;;;;;;;;5109942;28;20039;-73
2022/08/31 10:14:03;;;;;;;1.40;1.27;;;;;;;;;;5105776;28;20593;-73
2022/08/31 10:16:41;;;;;;;1.43;1.23;;;;;;;;;;5089639;28;20514;-73
2022/08/31 10:19:13;;;;;;;2.50;2.03;;;;;;;;;;5089500;28;20053;-72
2022/08/31 10:21:50;;;;;;;4.63;1.40;;;;;;;;;;5094965;28;20094;-73
2022/08/31 10:24:32;;;;;;;2.07;1.33;;;;;;;;;;5100567;28;21672;-73
2022/08/31 10:27:07;;;;;;;1.83;1.30;;;;;;;;;;5115044;28;20102;-72
2022/08/31 10:29:40;;;;;;;1.98;1.60;;;;;;;;;;5107221;28;20023;-73
2022/08/31 10:32:17;;;;;;;2.30;1.47;;;;;;;;;;5092716;28;20119;-72
2022/08/31 10:35:04;;;;;;;2.73;1.50;;;;;;;;;;5089453;28;20032;-73
2022/08/31 10:37:45;;;;;;;1.10;0.80;;;;;;;;;;5089312;28;20030;-73
2022/08/31 10:40:17;;;;;;;1.10;1.00;;;;;;;;;;5101179;28;20455;-72
2022/08/31 10:42:58;;;;;;;1.37;1.10;;;;;;;;;;5112508;28;20160;-73
2022/08/31 10:45:28;;;;;;;2.67;1.80;;;;;;;;;;5114220;28;20020;-73
2022/08/31 10:47:56;;;;;;;1.23;1.10;;;;;;;;;;5114736;28;20039;-72
2022/08/31 10:50:43;;;;;;;1.80;1.43;;;;;;;;;;5101167;28;20032;-73
2022/08/31 10:53:21;;;;;;;1.07;0.97;;;;;;;;;;5094217;28;20398;-73
2022/08/31 10:55:57;;;;;;;1.63;1.23;;;;;;;;;;5089328;28;20084;-73
2022/08/31 10:58:30;;;;;;;2.27;1.60;;;;;;;;;;5089015;28;20024;-73
2022/08/31 11:01:17;;;;;;;1.60;1.23;;;;;;;;;;5105503;28;20035;-72
2022/08/31 11:03:47;;;;;;;1.57;1.30;;;;;;;;;;5109139;28;20490;-73
2022/08/31 11:06:13;;;;;;;1.27;1.10;;;;;;;;;;5113625;28;20072;-72
2022/08/31 11:08:54;;;;;;;1.13;0.80;;;;;;;;;;5113866;28;20520;-72
2022/08/31 11:11:39;;;;;;;1.97;1.37;;;;;;;;;;5073419;28;20052;-73
2022/08/31 11:14:08;;;;;;;0.98;0.85;;;;;;;;;;5073643;28;20795;-72
2022/08/31 11:17:04;;;;;;;1.10;0.83;;;;;;;;;;5071864;28;20497;-72
2022/08/31 11:19:49;;;;;;;0.70;0.70;;;;;;;;;;5052750;28;20458;-73
2022/08/31 11:22:19;;;;;;;1.50;1.40;;;;;;;;;;5108619;28;20686;-72
2022/08/31 11:25:02;;;;;;;1.57;1.30;;;;;;;;;;5108774;28;20038;-72
2022/08/31 11:27:35;;;;;;;0.80;0.70;;;;;;;;;;5111669;28;20027;-72
2022/08/31 11:30:11;;;;;;;0.60;0.57;;;;;;;;;;5104185;28;20028;-72
2022/08/31 11:32:44;;;;;;;0.57;0.53;;;;;;;;;;5093564;28;20032;-72
2022/08/31 11:35:11;;;;;;;1.23;0.90;;;;;;;;;;5093316;28;20107;-72
2022/08/31 11:37:50;;;;;;;1.67;1.17;;;;;;;;;;5093464;28;20027;-72
2022/08/31 11:40:42;;;;;;;1.10;0.80;;;;;;;;;;5099341;28;20035;-72
2022/08/31 11:43:29;;;;;;;1.90;1.50;;;;;;;;;;5108428;28;20046;-73
2022/08/31 11:45:56;;;;;;;1.07;0.90;;;;;;;;;;5091078;28;20115;-72
2022/08/31 11:48:43;;;;;;;5.17;1.87;;;;;;;;;;5108664;28;20020;-72
2022/08/31 11:51:13;;;;;;;1.10;1.00;;;;;;;;;;5094660;28;20036;-72
2022/08/31 11:53:43;;;;;;;2.00;1.40;;;;;;;;;;5092653;28;20038;-72
2022/08/31 11:56:13;;;;;;;1.30;1.10;;;;;;;;;;5092903;28;20024;-72
2022/08/31 11:58:43;;;;;;;1.73;1.20;;;;;;;;;;5093056;28;20020;-73
2022/08/31 12:01:10;;;;;;;3.67;1.30;;;;;;;;;;5108749;28;20027;-72
2022/08/31 12:03:44;;;;;;;1.87;1.30;;;;;;;;;;5108050;28;20378;-73
2022/08/31 12:06:36;;;;;;;1.55;1.10;;;;;;;;;;5107870;28;20027;-73
2022/08/31 12:09:10;;;;;;;1.00;0.83;;;;;;;;;;5107315;28;20038;-73
2022/08/31 12:11:46;;;;;;;2.20;1.27;;;;;;;;;;5070037;28;20029;-73
2022/08/31 12:14:13;;;;;;;18.50;1.93;;;;;;;;;;5054177;28;20462;-72
2022/08/31 12:17:08;;;;;;;1.00;0.90;;;;;;;;;;5072621;28;20021;-72
2022/08/31 12:25:24;;;;;;;3.50;1.57;;;;;;;;;;5087390;28;20035;-73
2022/08/31 12:28:07;;;;;;;0.93;0.83;;;;;;;;;;5086791;28;20038;-72
2022/08/31 12:30:34;;;;;;;1.33;1.13;;;;;;;;;;5088291;28;20103;-72
2022/08/31 12:33:07;;;;;;;1.77;1.07;;;;;;;;;;5088014;28;20033;-72
2022/08/31 12:35:34;;;;;;;3.80;1.60;;;;;;;;;;5092569;28;20044;-72
2022/08/31 12:38:02;;;;;;;3.97;1.00;;;;;;;;;;5092394;28;20038;-72
2022/08/31 12:40:33;;;;;;;0.83;0.80;;;;;;;;;;5098056;28;20423;-72
2022/08/31 12:43:05;;;;;;;1.03;0.93;;;;;;;;;;5112751;28;20028;-72
2022/08/31 12:46:01;;;;;;;2.07;1.53;;;;;;;;;;5111157;28;20027;-73
2022/08/31 12:48:40;;;;;;;1.67;1.25;;;;;;;;;;5076073;28;20149;-73
2022/08/31 12:51:06;;;;;;;2.57;2.00;;;;;;;;;;5100869;28;20122;-73
2022/08/31 12:53:33;;;;;;;1.73;1.40;;;;;;;;;;5087139;28;20040;-73
2022/08/31 12:56:04;;;;;;;2.63;1.70;;;;;;;;;;5090484;28;20028;-73
2022/08/31 12:58:53;;;;;;;7.03;1.43;;;;;;;;;;5092240;28;20027;-72
2022/08/31 13:01:22;;;;;;;1.87;1.30;;;;;;;;;;5092228;28;20375;-72
2022/08/31 13:03:51;;;;;;;1.63;1.30;;;;;;;;;;5092298;28;20035;-72
2022/08/31 13:06:23;;;;;;;4.67;2.43;;;;;;;;;;5106270;28;20024;-72
2022/08/31 13:08:52;;;;;;;3.17;2.03;;;;;;;;;;5108153;28;20020;-72
2022/08/31 13:11:25;;;;;;;2.13;1.80;;;;;;;;;;5091464;28;20028;-73
2022/08/31 13:13:53;;;;;;;2.23;1.97;;;;;;;;;;5087025;28;20055;-72
2022/08/31 13:16:20;;;;;;;1.80;1.60;;;;;;;;;;5086773;28;20016;-73
2022/08/31 13:18:47;;;;;;;1.93;1.47;;;;;;;;;;5090231;28;20425;-72
2022/08/31 13:21:20;;;;;;;5.30;2.63;;;;;;;;;;5105083;28;20050;-72
2022/08/31 13:23:49;;;;;;;2.27;1.83;;;;;;;;;;5112146;28;20470;-72
2022/08/31 13:26:19;;;;;;;2.97;2.00;;;;;;;;;;5102088;28;20036;-73
2022/08/31 13:29:00;;;;;;;3.67;2.07;;;;;;;;;;5092121;28;20028;-73
2022/08/31 13:31:31;;;;;;;2.13;1.93;;;;;;;;;;5089855;28;20036;-72
2022/08/31 13:34:01;;;;;;;3.27;2.40;;;;;;;;;;5090140;28;20028;-73
2022/08/31 13:36:37;;;;;;;4.43;2.17;;;;;;;;;;5100634;28;20725;-73
2022/08/31 13:39:13;;;;;;;4.13;2.97;;;;;;;;;;5110923;28;20034;-72
2022/08/31 13:41:53;;;;;;;2.30;2.00;;;;;;;;;;5115851;28;20106;-72
2022/08/31 13:44:22;;;;;;;2.33;1.93;;;;;;;;;;5115980;28;20023;-73
2022/08/31 13:46:59;;;;;;;1.67;1.47;;;;;;;;;;5102812;28;20028;-73
2022/08/31 13:49:34;;;;;;;3.67;2.00;;;;;;;;;;5095520;28;20016;-72
2022/08/31 13:52:05;;;;;;;3.33;2.65;;;;;;;;;;5093988;28;20032;-73
2022/08/31 13:54:34;;;;;;;3.77;1.90;;;;;;;;;;5090093;28;20028;-72
2022/08/31 13:57:11;;;;;;;3.77;2.50;;;;;;;;;;5103602;28;20161;-73
2022/08/31 13:59:39;;;;;;;2.47;1.70;;;;;;;;;;5110498;28;20024;-73
2022/08/31 14:02:15;;;;;;;3.03;2.43;;;;;;;;;;5111152;28;20107;-72
2022/08/31 14:04:48;;;;;;;3.23;2.53;;;;;;;;;;5097222;28;20375;-72
2022/08/31 14:07:18;;;;;;;2.60;1.77;;;;;;;;;;5100144;28;20080;-72
2022/08/31 14:09:46;;;;;;;3.93;2.87;;;;;;;;;;5094746;28;20550;-72
2022/08/31 14:12:34;;;;;;;4.53;3.80;;;;;;;;;;5094982;28;20043;-72
2022/08/31 14:15:19;;;;;;;5.27;3.50;;;;;;;;;;5092455;28;20425;-72
2022/08/31 14:17:51;;;;;;;4.80;3.15;;;;;;;;;;5093812;28;20043;-72
2022/08/31 14:20:32;;;;;;;5.23;3.03;;;;;;;;;;5109819;28;20047;-73
2022/08/31 14:23:18;;;;;;;4.10;3.60;;;;;;;;;;5102365;28;20518;-73
2022/08/31 14:25:45;;;;;;;4.80;4.10;;;;;;;;;;5093469;28;20114;-72
2022/08/31 14:28:11;;;;;;;6.30;4.33;;;;;;;;;;5094786;28;20047;-73
2022/08/31 14:30:39;;;;;;;4.20;3.33;;;;;;;;;;5100772;28;20103;-72
2022/08/31 14:33:11;;;;;;;5.27;4.37;;;;;;;;;;5114598;28;20055;-72
2022/08/31 14:35:38;;;;;;;4.47;3.50;;;;;;;;;;5115058;28;20572;-73
2022/08/31 14:38:05;;;;;;;5.67;4.97;;;;;;;;;;5110480;28;20639;-72
2022/08/31 14:40:32;;;;;;;5.83;4.77;;;;;;;;;;5104227;28;20467;-73
2022/08/31 14:42:58;;;;;;;5.93;4.23;;;;;;;;;;5089156;28;20103;-72
2022/08/31 14:45:25;;;;;;;5.57;3.93;;;;;;;;;;5089312;28;20024;-73
2022/08/31 14:47:51;;;;;;;7.57;4.33;;;;;;;;;;5092573;28;20565;-72
2022/08/31 14:50:22;;;;;;;6.90;5.40;;;;;;;;;;5096830;28;20055;-73
2022/08/31 14:52:53;;;;;;;6.37;4.77;;;;;;;;;;5114479;28;20047;-73
2022/08/31 14:55:21;;;;;;;7.10;4.90;;;;;;;;;;5114695;28;20459;-73
2022/08/31 14:57:56;;;;;;;6.80;5.00;;;;;;;;;;5114705;28;20046;-72
2022/08/31 15:00:24;;;;;;;6.17;3.90;;;;;;;;;;5105730;28;20045;-72
2022/08/31 15:02:55;;;;;;;8.10;3.93;;;;;;;;;;5088849;28;20077;-73
2022/08/31 15:05:23;;;;;;;5.97;4.13;;;;;;;;;;5088820;28;20020;-73
2022/08/31 15:07:51;;;;;;;5.87;4.03;;;;;;;;;;5088768;28;20105;-73
2022/08/31 15:10:19;;;;;;;5.20;3.80;;;;;;;;;;5094851;28;20028;-73
2022/08/31 15:12:47;;;;;;;3.50;2.93;;;;;;;;;;5114177;28;20036;-73
2022/08/31 15:15:19;;;;;;;5.30;3.67;;;;;;;;;;5113893;28;20024;-73
2022/08/31 15:17:47;;;;;;;5.90;3.47;;;;;;;;;;5114111;28;20026;-73
2022/08/31 15:20:19;;;;;;;4.30;2.90;;;;;;;;;;5112334;28;20072;-73